createdAt,value
2022-08-14T00:02:27.098Z,17.20
2022-08-14T00:04:55.679Z,17.20
2022-08-14T00:07:23.555Z,17.20
2022-08-14T00:10:02.561Z,17.20
2022-08-14T00:12:42.717Z,17.30
2022-08-14T00:15:26.248Z,17.30
2022-08-14T00:17:58.496Z,17.20
2022-08-14T00:20:31.079Z,17.20
2022-08-14T00:23:12.410Z,17.10
2022-08-14T00:25:53.801Z,17.00
2022-08-14T00:28:35.420Z,17.00
2022-08-14T00:31:05.765Z,16.90
2022-08-14T00:33:51.423Z,16.80
2022-08-14T00:36:37.055Z,16.70
2022-08-14T00:39:14.160Z,16.70
2022-08-14T00:41:42.476Z,16.80
2022-08-14T00:44:10.970Z,16.70
2022-08-14T00:46:39.197Z,16.70
2022-08-14T00:49:11.550Z,16.70
2022-08-14T00:51:44.634Z,16.70
2022-08-14T00:54:21.037Z,16.70
2022-08-14T00:56:55.245Z,16.70
2022-08-14T00:59:26.311Z,16.50
2022-08-14T01:01:59.722Z,16.40
2022-08-14T01:04:38.214Z,16.30
2022-08-14T01:07:22.452Z,16.20
2022-08-14T01:09:58.924Z,16.30
2022-08-14T01:12:29.731Z,16.20
2022-08-14T01:15:00.285Z,16.20
2022-08-14T01:17:52.290Z,16.00
2022-08-14T01:20:41.283Z,16.00
2022-08-14T01:23:16.689Z,15.90
2022-08-14T01:25:51.524Z,15.90
2022-08-14T01:28:34.456Z,15.90
2022-08-14T01:31:15.337Z,16.00
2022-08-14T01:35:15.743Z,16.00
2022-08-14T01:36:39.057Z,16.10
2022-08-14T01:39:13.646Z,16.20
2022-08-14T01:41:56.274Z,16.30
2022-08-14T01:44:33.027Z,16.40
2022-08-14T01:47:16.565Z,16.50
2022-08-14T01:49:59.688Z,16.60
2022-08-14T01:52:58.803Z,16.50
2022-08-14T01:55:23.262Z,16.50
2022-08-14T01:58:02.088Z,16.40
2022-08-14T02:00:39.685Z,16.40
2022-08-14T02:03:07.911Z,16.40
2022-08-14T02:05:38.589Z,16.40
2022-08-14T02:08:08.970Z,16.30
2022-08-14T02:10:46.929Z,16.40
2022-08-14T02:13:19.054Z,16.50
2022-08-14T02:16:13.453Z,16.60
2022-08-14T02:18:50.473Z,16.90
2022-08-14T02:21:19.462Z,17.00
2022-08-14T02:23:53.634Z,17.00
2022-08-14T02:26:24.895Z,16.90
2022-08-14T02:29:06.673Z,17.00
2022-08-14T02:31:43.488Z,16.90
2022-08-14T02:34:21.810Z,16.70
2022-08-14T02:37:03.902Z,16.60
2022-08-14T02:39:37.159Z,16.50
2022-08-14T02:42:13.084Z,16.60
2022-08-14T02:44:49.320Z,16.50
2022-08-14T02:47:20.749Z,16.50
2022-08-14T02:49:50.609Z,16.20
2022-08-14T02:52:55.637Z,16.20
2022-08-14T02:55:11.961Z,16.10
2022-08-14T02:57:58.151Z,16.20
2022-08-14T03:00:35.519Z,16.10
2022-08-14T03:03:08.313Z,15.90
2022-08-14T03:05:41.237Z,15.80
2022-08-14T03:08:33.334Z,15.80
2022-08-14T03:11:07.702Z,15.80
2022-08-14T03:13:37.946Z,15.80
2022-08-14T03:16:09.333Z,15.80
2022-08-14T03:18:52.589Z,15.80
2022-08-14T03:21:23.172Z,15.70
2022-08-14T03:24:21.543Z,15.70
2022-08-14T03:26:56.204Z,15.60
2022-08-14T03:29:27.739Z,15.60
2022-08-14T03:31:57.587Z,15.60
2022-08-14T03:34:48.448Z,15.60
2022-08-14T03:37:37.850Z,15.60
2022-08-14T03:40:03.672Z,15.60
2022-08-14T03:42:36.594Z,15.60
2022-08-14T03:45:27.495Z,15.70
2022-08-14T03:47:56.298Z,15.70
2022-08-14T03:50:31.447Z,15.40
2022-08-14T03:53:01.960Z,15.40
2022-08-14T03:55:30.816Z,15.40
2022-08-14T03:58:00.461Z,15.50
2022-08-14T04:00:43.508Z,15.40
2022-08-14T04:03:23.613Z,15.20
2022-08-14T04:05:53.539Z,15.10
2022-08-14T04:08:23.218Z,15.10
2022-08-14T04:11:02.092Z,15.10
2022-08-14T04:13:34.146Z,15.10
2022-08-14T04:16:12.421Z,15.00
2022-08-14T04:18:43.421Z,14.90
2022-08-14T04:21:13.023Z,14.80
2022-08-14T04:23:43.489Z,14.80
2022-08-14T04:26:14.841Z,14.70
2022-08-14T04:29:01.859Z,14.80
2022-08-14T04:33:10.596Z,14.80
2022-08-14T04:34:30.871Z,14.70
2022-08-14T04:37:21.869Z,14.70
2022-08-14T04:40:09.172Z,14.80
2022-08-14T04:42:57.606Z,14.90
2022-08-14T04:45:32.950Z,15.00
2022-08-14T04:48:12.930Z,15.20
2022-08-14T04:50:45.494Z,15.20
2022-08-14T04:53:35.698Z,15.30
2022-08-14T04:56:05.761Z,15.40
2022-08-14T04:58:39.632Z,15.70
2022-08-14T05:01:12.785Z,16.00
2022-08-14T05:03:47.897Z,16.40
2022-08-14T05:06:38.072Z,16.80
2022-08-14T05:09:10.500Z,17.00
2022-08-14T05:11:44.307Z,17.30
2022-08-14T05:14:36.122Z,17.40
2022-08-14T05:17:01.807Z,17.50
2022-08-14T05:19:32.570Z,17.60
2022-08-14T05:22:16.836Z,17.80
2022-08-14T05:24:50.474Z,18.00
2022-08-14T05:27:22.776Z,18.30
2022-08-14T05:29:53.443Z,18.30
2022-08-14T05:32:22.208Z,18.40
2022-08-14T05:34:50.855Z,18.90
2022-08-14T05:37:19.638Z,19.00
2022-08-14T05:39:47.773Z,19.30
2022-08-14T05:42:21.547Z,19.60
2022-08-14T05:44:50.413Z,19.50
2022-08-14T05:47:23.052Z,19.10
2022-08-14T05:49:51.589Z,18.80
2022-08-14T05:52:38.610Z,18.70
2022-08-14T05:55:09.444Z,18.90
2022-08-14T05:58:08.654Z,19.00
2022-08-14T06:00:42.195Z,19.30
2022-08-14T06:03:16.852Z,19.40
2022-08-14T06:05:51.370Z,19.00
2022-08-14T06:08:41.692Z,18.70
2022-08-14T06:11:10.584Z,18.50
2022-08-14T06:13:48.102Z,18.90
2022-08-14T06:16:18.783Z,19.50
2022-08-14T06:18:51.812Z,20.00
2022-08-14T06:21:22.639Z,20.60
2022-08-14T06:23:51.455Z,20.00
2022-08-14T06:26:20.550Z,20.40
2022-08-14T06:28:53.633Z,20.00
2022-08-14T06:31:22.905Z,20.00
2022-08-14T06:35:11.274Z,20.00
2022-08-14T06:36:39.555Z,20.20
2022-08-14T06:39:10.073Z,20.40
2022-08-14T06:41:59.507Z,20.60
2022-08-14T06:44:32.282Z,21.20
2022-08-14T06:47:03.040Z,22.00
2022-08-14T06:49:40.536Z,22.50
2022-08-14T06:52:15.421Z,23.00
2022-08-14T06:54:45.725Z,23.50
2022-08-14T06:57:13.837Z,23.40
2022-08-14T06:59:42.436Z,23.20
2022-08-14T07:02:29.620Z,23.70
2022-08-14T07:05:22.986Z,23.30
2022-08-14T07:07:51.957Z,23.20
2022-08-14T07:10:22.233Z,23.10
2022-08-14T07:13:01.656Z,23.10
2022-08-14T07:15:32.410Z,23.00
2022-08-14T07:18:01.292Z,22.50
2022-08-14T07:20:30.520Z,22.50
2022-08-14T07:23:07.749Z,23.00
2022-08-14T07:25:38.039Z,22.60
2022-08-14T07:28:20.648Z,23.00
2022-08-14T07:30:51.547Z,23.20
2022-08-14T07:33:24.841Z,22.90
2022-08-14T07:36:09.070Z,22.70
2022-08-14T07:38:53.546Z,23.30
2022-08-14T07:41:21.447Z,23.40
2022-08-14T07:43:55.325Z,24.20
2022-08-14T07:46:28.473Z,24.50
2022-08-14T07:48:58.160Z,24.20
2022-08-14T07:51:36.789Z,24.90
2022-08-14T07:54:06.911Z,24.70
2022-08-14T07:56:48.193Z,25.20
2022-08-14T07:59:18.658Z,25.60
2022-08-14T08:01:51.640Z,25.20
2022-08-14T08:04:27.145Z,25.30
2022-08-14T08:06:55.784Z,24.90
2022-08-14T08:09:29.885Z,24.40
2022-08-14T08:12:04.819Z,24.30
2022-08-14T08:14:56.082Z,24.40
2022-08-14T08:17:35.043Z,24.30
2022-08-14T08:20:12.592Z,24.50
2022-08-14T08:22:48.038Z,24.60
2022-08-14T08:25:18.235Z,24.80
2022-08-14T08:28:08.468Z,25.30
2022-08-14T08:30:49.641Z,26.00
2022-08-14T08:33:19.863Z,25.90
2022-08-14T08:35:50.717Z,26.00
2022-08-14T08:39:14.681Z,26.30
2022-08-14T08:41:43.649Z,26.20
2022-08-14T08:44:17.259Z,26.50
2022-08-14T08:47:01.730Z,27.30
2022-08-14T08:49:53.375Z,26.60
2022-08-14T08:52:31.605Z,25.40
2022-08-14T08:55:01.222Z,25.60
2022-08-14T08:57:37.550Z,25.60
2022-08-14T09:00:24.443Z,26.10
2022-08-14T09:02:57.599Z,26.20
2022-08-14T09:05:26.289Z,26.30
2022-08-14T09:07:56.507Z,26.50
2022-08-14T09:10:27.270Z,27.00
2022-08-14T09:12:56.322Z,27.70
2022-08-14T09:15:24.380Z,27.60
2022-08-14T09:17:52.878Z,27.70
2022-08-14T09:20:26.435Z,27.90
2022-08-14T09:22:59.801Z,28.20
2022-08-14T09:26:00.315Z,28.40
2022-08-14T09:28:17.639Z,27.60
2022-08-14T09:30:54.115Z,28.30
2022-08-14T09:33:34.063Z,28.20
2022-08-14T09:36:18.542Z,27.90
2022-08-14T09:39:42.326Z,27.70
2022-08-14T09:42:33.325Z,27.80
2022-08-14T09:45:10.816Z,28.20
2022-08-14T09:47:48.958Z,28.30
2022-08-14T09:50:33.120Z,28.00
2022-08-14T09:53:17.789Z,27.80
2022-08-14T09:55:58.906Z,27.70
2022-08-14T09:59:41.015Z,27.70
2022-08-14T10:02:28.500Z,27.90
2022-08-14T10:05:02.953Z,28.40
2022-08-14T10:07:53.817Z,28.40
2022-08-14T10:10:38.589Z,28.20
2022-08-14T10:13:20.367Z,27.90
2022-08-14T10:15:52.507Z,28.10
2022-08-14T10:18:26.403Z,28.10
2022-08-14T10:21:00.946Z,28.10
2022-08-14T10:23:40.446Z,28.10
2022-08-14T10:26:22.384Z,28.00
2022-08-14T10:29:18.873Z,28.10
2022-08-14T10:31:45.290Z,27.90
2022-08-14T10:34:19.727Z,28.00
2022-08-14T10:37:02.678Z,28.20
2022-08-14T10:39:30.848Z,28.20
2022-08-14T10:42:18.375Z,28.30
2022-08-14T10:44:52.618Z,28.00
2022-08-14T10:47:39.944Z,27.70
2022-08-14T10:50:12.110Z,27.40
2022-08-14T10:52:43.830Z,27.60
2022-08-14T10:55:14.779Z,27.30
2022-08-14T10:57:57.506Z,27.50
2022-08-14T11:00:29.765Z,27.90
2022-08-14T11:03:26.830Z,28.30
2022-08-14T11:06:15.324Z,28.70
2022-08-14T11:08:45.601Z,28.30
2022-08-14T11:11:13.860Z,27.90
2022-08-14T11:13:44.178Z,28.00
2022-08-14T11:16:14.363Z,28.30
2022-08-14T11:18:50.948Z,28.50
2022-08-14T11:21:23.338Z,28.50
2022-08-14T11:23:53.394Z,28.60
2022-08-14T11:26:24.356Z,28.70
2022-08-14T11:28:53.690Z,28.90
2022-08-14T11:31:24.217Z,28.70
2022-08-14T11:33:55.500Z,28.50
2022-08-14T11:37:02.107Z,28.60
2022-08-14T11:39:35.063Z,28.80
2022-08-14T11:42:57.805Z,28.90
2022-08-14T11:45:10.963Z,28.70
2022-08-14T11:48:13.789Z,28.90
2022-08-14T11:50:37.034Z,28.90
2022-08-14T11:53:08.803Z,28.60
2022-08-14T11:55:39.716Z,28.70
2022-08-14T11:58:10.518Z,28.90
2022-08-14T12:00:54.219Z,29.10
2022-08-14T12:03:27.095Z,28.40
2022-08-14T12:06:29.106Z,28.20
2022-08-14T12:08:59.763Z,28.40
2022-08-14T12:11:43.083Z,28.70
2022-08-14T12:14:30.605Z,29.00
2022-08-14T12:17:12.524Z,29.10
2022-08-14T12:19:54.182Z,29.20
2022-08-14T12:22:38.022Z,29.10
2022-08-14T12:25:19.632Z,29.20
2022-08-14T12:27:52.598Z,29.20
2022-08-14T12:30:40.148Z,29.50
2022-08-14T12:33:32.718Z,29.10
2022-08-14T12:36:10.011Z,29.00
2022-08-14T12:38:43.604Z,29.20
2022-08-14T12:41:21.202Z,29.10
2022-08-14T12:43:55.718Z,29.50
2022-08-14T12:46:43.713Z,29.60
2022-08-14T12:49:17.142Z,29.70
2022-08-14T12:51:57.261Z,29.80
2022-08-14T12:54:28.233Z,29.90
2022-08-14T12:57:06.149Z,29.40
2022-08-14T12:59:37.104Z,29.40
2022-08-14T13:02:26.526Z,29.60
2022-08-14T13:04:56.928Z,29.50
2022-08-14T13:07:32.786Z,29.50
2022-08-14T13:10:46.249Z,29.50
2022-08-14T13:13:12.454Z,29.40
2022-08-14T13:15:41.063Z,29.40
2022-08-14T13:18:11.347Z,29.70
2022-08-14T13:20:49.534Z,29.80
2022-08-14T13:23:30.734Z,30.00
2022-08-14T13:26:01.205Z,29.80
2022-08-14T13:28:33.749Z,29.90
2022-08-14T13:31:10.968Z,29.80
2022-08-14T13:33:41.259Z,29.70
2022-08-14T13:36:11.044Z,30.00
2022-08-14T13:38:53.305Z,30.10
2022-08-14T13:41:28.031Z,30.30
2022-08-14T13:44:03.421Z,30.30
2022-08-14T13:46:31.409Z,30.30
2022-08-14T13:49:00.141Z,30.40
2022-08-14T13:51:35.597Z,30.30
2022-08-14T13:54:11.599Z,30.40
2022-08-14T13:56:41.895Z,30.50
2022-08-14T13:59:10.584Z,30.60
2022-08-14T14:01:43.288Z,29.80
2022-08-14T14:04:19.333Z,29.80
2022-08-14T14:06:50.953Z,30.10
2022-08-14T14:09:32.567Z,30.20
2022-08-14T14:12:38.354Z,29.90
2022-08-14T14:15:09.883Z,30.00
2022-08-14T14:17:40.213Z,29.80
2022-08-14T14:20:15.256Z,29.70
2022-08-14T14:23:02.263Z,29.90
2022-08-14T14:25:38.703Z,30.00
2022-08-14T14:28:24.239Z,30.00
2022-08-14T14:30:57.451Z,30.10
2022-08-14T14:33:49.500Z,30.20
2022-08-14T14:36:20.872Z,30.20
2022-08-14T14:38:58.689Z,30.20
2022-08-14T14:41:37.548Z,30.10
2022-08-14T14:44:09.133Z,30.10
2022-08-14T14:46:41.598Z,30.20
2022-08-14T14:49:14.457Z,30.20
2022-08-14T14:51:51.606Z,30.10
2022-08-14T14:54:31.519Z,30.10
2022-08-14T14:57:02.433Z,29.90
2022-08-14T14:59:33.599Z,29.90
2022-08-14T15:02:08.013Z,29.80
2022-08-14T15:04:37.993Z,29.90
2022-08-14T15:07:07.081Z,29.90
2022-08-14T15:09:35.226Z,29.90
2022-08-14T15:12:16.080Z,29.70
2022-08-14T15:14:56.349Z,29.70
2022-08-14T15:17:28.477Z,29.60
2022-08-14T15:19:57.614Z,29.80
2022-08-14T15:22:28.896Z,29.90
2022-08-14T15:24:58.529Z,29.70
2022-08-14T15:27:26.930Z,29.70
2022-08-14T15:29:55.703Z,29.80
2022-08-14T15:32:23.742Z,29.80
2022-08-14T15:34:52.643Z,29.70
2022-08-14T15:37:22.912Z,29.70
2022-08-14T15:39:52.782Z,29.60
2022-08-14T15:42:23.447Z,29.70
2022-08-14T15:44:57.830Z,29.50
2022-08-14T15:47:34.963Z,29.40
2022-08-14T15:50:09.605Z,29.40
2022-08-14T15:52:38.034Z,29.50
2022-08-14T15:55:09.355Z,29.50
2022-08-14T15:57:38.821Z,29.60
2022-08-14T16:00:41.839Z,29.50
2022-08-14T16:03:15.567Z,29.50
2022-08-14T16:05:46.075Z,29.60
2022-08-14T16:08:27.451Z,29.50
2022-08-14T16:11:03.298Z,29.40
2022-08-14T16:13:45.637Z,29.20
2022-08-14T16:16:49.033Z,29.00
2022-08-14T16:19:17.568Z,28.90
2022-08-14T16:21:58.310Z,28.60
2022-08-14T16:24:33.689Z,28.60
2022-08-14T16:27:05.891Z,28.50
2022-08-14T16:29:40.016Z,28.60
2022-08-14T16:32:33.220Z,28.70
2022-08-14T16:35:01.359Z,29.00
2022-08-14T16:37:34.012Z,29.00
2022-08-14T16:40:03.658Z,28.90
2022-08-14T16:43:02.571Z,29.10
2022-08-14T16:45:26.176Z,28.90
2022-08-14T16:47:56.279Z,28.60
2022-08-14T16:50:43.261Z,28.40
2022-08-14T16:53:17.781Z,28.20
2022-08-14T16:55:53.306Z,28.00
2022-08-14T16:58:29.701Z,28.00
2022-08-14T17:01:24.530Z,28.00
2022-08-14T17:04:24.399Z,28.00
2022-08-14T17:07:16.299Z,28.00
2022-08-14T17:09:49.161Z,28.20
2022-08-14T17:12:31.451Z,28.40
2022-08-14T17:15:15.186Z,28.60
2022-08-14T17:17:58.423Z,28.50
2022-08-14T17:20:39.743Z,28.20
2022-08-14T17:23:16.180Z,28.10
2022-08-14T17:25:50.847Z,27.90
2022-08-14T17:28:52.217Z,27.80
2022-08-14T17:31:09.919Z,27.70
2022-08-14T17:33:44.802Z,27.60
2022-08-14T17:36:24.225Z,27.40
2022-08-14T17:39:11.846Z,27.30
2022-08-14T17:41:43.963Z,27.10
2022-08-14T17:44:12.219Z,27.00
2022-08-14T17:46:47.797Z,26.90
2022-08-14T17:49:23.787Z,26.80
2022-08-14T17:52:18.946Z,26.70
2022-08-14T17:55:02.023Z,26.60
2022-08-14T17:57:35.182Z,26.50
2022-08-14T18:00:05.987Z,26.40
2022-08-14T18:02:35.431Z,26.30
2022-08-14T18:05:04.937Z,26.30
2022-08-14T18:08:00.057Z,26.20
2022-08-14T18:10:52.733Z,26.20
2022-08-14T18:13:14.499Z,26.00
2022-08-14T18:15:44.400Z,26.00
2022-08-14T18:18:19.582Z,25.90
2022-08-14T18:21:24.129Z,25.80
2022-08-14T18:23:46.013Z,25.70
2022-08-14T18:26:36.970Z,25.70
2022-08-14T18:29:14.717Z,25.60
2022-08-14T18:31:44.140Z,25.60
2022-08-14T18:34:31.753Z,25.50
2022-08-14T18:37:17.006Z,25.40
2022-08-14T18:40:01.310Z,25.40
2022-08-14T18:42:35.254Z,25.30
2022-08-14T18:45:12.744Z,25.30
2022-08-14T18:48:14.135Z,25.20
2022-08-14T18:50:54.402Z,25.20
2022-08-14T18:53:24.642Z,25.20
2022-08-14T18:55:56.348Z,25.20
2022-08-14T18:58:57.002Z,25.10
2022-08-14T19:01:29.864Z,25.00
2022-08-14T19:04:00.824Z,24.90
2022-08-14T19:06:44.689Z,24.80
2022-08-14T19:09:50.542Z,24.70
2022-08-14T19:12:56.672Z,24.50
2022-08-14T19:15:27.615Z,24.20
2022-08-14T19:18:10.583Z,24.10
2022-08-14T19:20:58.310Z,24.00
2022-08-14T19:23:43.901Z,23.90
2022-08-14T19:26:36.040Z,23.80
2022-08-14T19:29:36.126Z,23.90
2022-08-14T19:32:36.445Z,23.90
2022-08-14T19:35:16.730Z,23.70
2022-08-14T19:37:54.962Z,23.50
2022-08-14T19:40:42.755Z,23.20
2022-08-14T19:43:50.865Z,23.10
2022-08-14T19:46:39.372Z,23.10
2022-08-14T19:48:58.906Z,23.10
2022-08-14T19:51:32.636Z,23.10
2022-08-14T19:54:13.315Z,23.00
2022-08-14T19:56:45.524Z,22.80
2022-08-14T19:59:19.946Z,22.70
2022-08-14T20:01:51.853Z,22.60
2022-08-14T20:04:46.415Z,22.60
2022-08-14T20:08:09.328Z,22.50
2022-08-14T20:11:03.053Z,22.20
2022-08-14T20:13:32.504Z,22.00
2022-08-14T20:16:11.960Z,21.70
2022-08-14T20:18:51.969Z,21.60
2022-08-14T20:21:21.520Z,21.60
2022-08-14T20:24:09.822Z,21.60
2022-08-14T20:27:44.283Z,21.60
2022-08-14T20:30:34.063Z,21.60
2022-08-14T20:33:08.067Z,21.50
2022-08-14T20:35:39.100Z,21.50
2022-08-14T20:38:31.300Z,21.50
2022-08-14T20:41:06.747Z,21.50
2022-08-14T20:43:59.694Z,21.40
2022-08-14T20:46:38.296Z,21.30
2022-08-14T20:49:19.223Z,21.30
2022-08-14T20:51:59.134Z,21.20
2022-08-14T20:54:34.605Z,21.20
2022-08-14T20:57:14.751Z,21.10
2022-08-14T20:59:50.371Z,21.10
2022-08-14T21:02:27.038Z,21.10
2022-08-14T21:05:17.218Z,21.10
2022-08-14T21:07:51.263Z,21.20
2022-08-14T21:10:34.146Z,21.20
2022-08-14T21:13:26.154Z,21.20
2022-08-14T21:15:57.449Z,21.20
2022-08-14T21:18:29.596Z,21.20
2022-08-14T21:20:59.955Z,21.20
2022-08-14T21:23:32.811Z,21.20
2022-08-14T21:26:01.100Z,21.10
2022-08-14T21:28:35.139Z,21.00
2022-08-14T21:31:05.534Z,20.80
2022-08-14T21:33:34.692Z,20.70
2022-08-14T21:36:07.550Z,20.50
2022-08-14T21:38:38.416Z,20.50
2022-08-14T21:41:41.539Z,20.40
2022-08-14T21:44:17.607Z,20.40
2022-08-14T21:46:54.768Z,20.40
2022-08-14T21:49:35.956Z,20.50
2022-08-14T21:52:51.417Z,20.50
2022-08-14T21:55:09.383Z,20.60
2022-08-14T21:58:44.848Z,20.50
2022-08-14T22:00:36.589Z,20.40
2022-08-14T22:03:17.100Z,20.20
2022-08-14T22:05:49.657Z,20.20
2022-08-14T22:08:19.378Z,20.10
2022-08-14T22:10:51.655Z,20.10
2022-08-14T22:13:24.695Z,20.10
2022-08-14T22:15:58.591Z,20.20
2022-08-14T22:18:29.707Z,20.20
2022-08-14T22:20:58.339Z,20.20
2022-08-14T22:23:26.460Z,20.20
2022-08-14T22:25:55.660Z,20.10
2022-08-14T22:28:32.916Z,20.00
2022-08-14T22:31:10.198Z,19.90
2022-08-14T22:33:40.179Z,19.70
2022-08-14T22:36:27.469Z,19.70
2022-08-14T22:39:02.509Z,19.70
2022-08-14T22:41:36.946Z,19.70
2022-08-14T22:44:19.804Z,19.70
2022-08-14T22:46:49.233Z,19.70
2022-08-14T22:50:31.672Z,19.60
2022-08-14T22:52:41.575Z,19.60
2022-08-14T22:54:59.119Z,19.60
2022-08-14T22:57:37.269Z,19.60
2022-08-14T23:00:19.926Z,19.70
2022-08-14T23:02:57.378Z,19.70
2022-08-14T23:05:39.593Z,19.70
2022-08-14T23:09:00.463Z,19.70
2022-08-14T23:11:03.066Z,19.60
2022-08-14T23:13:32.427Z,19.60
2022-08-14T23:16:00.892Z,19.50
2022-08-14T23:18:30.356Z,19.40
2022-08-14T23:20:58.765Z,19.30
2022-08-14T23:23:27.076Z,19.20
2022-08-14T23:26:00.253Z,19.20
2022-08-14T23:28:56.397Z,19.20
2022-08-14T23:31:35.712Z,19.20
2022-08-14T23:34:10.798Z,19.30
2022-08-14T23:36:54.235Z,19.40
2022-08-14T23:39:31.569Z,19.30
2022-08-14T23:42:04.480Z,19.30
2022-08-14T23:44:35.211Z,19.30
2022-08-14T23:47:10.773Z,19.20
2022-08-14T23:49:57.055Z,19.20
2022-08-14T23:52:55.892Z,19.20
2022-08-14T23:55:17.303Z,19.20
2022-08-14T23:57:57.931Z,19.20
